Wendover, UT

8:31 PM MDT on May 22, 2017 (GMT -0600)
Wendover

Weather History for KENV - December, 2012

Change the Weather History Date:

Monday, December 17, 2012

  Actual Average Record
Temperature  
Mean Temperature 46 °F -  
Max Temperature 55 °F 34 °F 55 °F (2012)
Min Temperature 37 °F 18 °F 3 °F (1964)
Degree Days  
Heating Degree Days 19    
Moisture  
Dew Point 24 °F    
Average Humidity 48    
Maximum Humidity 61    
Minimum Humidity 29    
Precipitation  
Precipitation 0.00 in - - ()
Sea Level Pressure  
Sea Level Pressure 29.76 in    
Wind  
Wind Speed 14 mph (SW)    
Max Wind Speed 30 mph    
Max Gust Speed 43 mph    
Visibility 10 miles    
Events      
Averages and records for this station are not official NWS values.
T = Trace of Precipitation, MM = Missing Value Source: NWS Daily Summary

Daily Weather History Graph

Daily Weather History Graph

Search for Another Location

Airport or City:

Trip Planner

Search our weather history database for the weather conditions in past years. The results will help you decide how hot, cold, wet, or windy it might be!

Date:

Astronomy

Dec. 17, 2012 Rise Set
Actual Time 7:54 AM MST 5:10 PM MST
Civil Twilight 7:23 AM MST 5:41 PM MST
Nautical Twilight 6:49 AM MST 6:15 PM MST
Astronomical Twilight 6:15 AM MST 6:49 PM MST
Moon 11:04 AM MST (12/17) 10:38 PM MST (12/17)
Length of Visible Light 10h 17m
Length of Day
9h 15m
Waxing Crescent, 25% of the Moon is Illuminated
Dec 17
Waxing Crescent
Dec 19
First Quarter
Dec 28
Full
Jan 4
Last Quarter
Jan 11
New

Hourly Weather History & Observations

Time (MST) Temp. Windchill Dew Point Humidity Pressure Visibility Wind Dir Wind Speed Gust Speed Precip Events Conditions
12:15 AM 42.8 °F 35.8 °F 26.6 °F 53% 29.80 in 10.0 mi WSW 13.8 mph 20.7 mph N/A   Clear
12:35 AM 42.8 °F 35.8 °F 26.6 °F 53% 29.80 in 10.0 mi SSW 13.8 mph - N/A   Partly Cloudy
12:55 AM 42.8 °F 36.6 °F 26.6 °F 53% 29.79 in 10.0 mi South 11.5 mph - N/A   Mostly Cloudy
1:15 AM 42.8 °F 35.1 °F 26.6 °F 53% 29.78 in 10.0 mi South 16.1 mph 19.6 mph N/A   Mostly Cloudy
1:35 AM 42.8 °F 37.0 °F 26.6 °F 53% 29.78 in 10.0 mi South 10.4 mph - N/A   Mostly Cloudy
1:55 AM 42.8 °F 36.2 °F 26.6 °F 53% 29.77 in 10.0 mi South 12.7 mph - N/A   Mostly Cloudy
2:15 AM 42.8 °F 34.3 °F 26.6 °F 53% 29.76 in 10.0 mi South 19.6 mph - N/A   Mostly Cloudy
2:35 AM 42.8 °F 34.3 °F 24.8 °F 49% 29.76 in 10.0 mi South 19.6 mph - N/A   Partly Cloudy
2:55 AM 42.8 °F 33.3 °F 26.6 °F 53% 29.75 in 10.0 mi South 24.2 mph 28.8 mph N/A   Clear
3:15 AM 42.8 °F 33.3 °F 24.8 °F 49% 29.74 in 10.0 mi South 24.2 mph 28.8 mph N/A   Clear
3:35 AM 42.8 °F 34.8 °F 24.8 °F 49% 29.74 in 10.0 mi SSE 17.3 mph 26.5 mph N/A   Clear
3:55 AM 41.0 °F 33.9 °F 24.8 °F 53% 29.74 in 10.0 mi SSE 12.7 mph - N/A   Clear
4:15 AM 39.2 °F 33.6 °F 24.8 °F 56% 29.74 in 10.0 mi SSE 8.1 mph - N/A   Clear
4:35 AM 39.2 °F 32.0 °F 24.8 °F 56% 29.73 in 10.0 mi SE 11.5 mph - N/A   Clear
4:55 AM 39.2 °F 33.0 °F 24.8 °F 56% 29.74 in 10.0 mi SE 9.2 mph - N/A   Clear
5:15 AM 39.2 °F 33.6 °F 24.8 °F 56% 29.73 in 10.0 mi SE 8.1 mph - N/A   Clear
5:35 AM 41.0 °F - 24.8 °F 53% 29.73 in 10.0 mi Calm Calm - N/A   Clear
5:55 AM 39.2 °F - 23.0 °F 52% 29.73 in 10.0 mi Calm Calm - N/A   Clear
6:15 AM 39.2 °F 33.6 °F 23.0 °F 52% 29.73 in 10.0 mi WSW 8.1 mph - N/A   Clear
6:35 AM 37.4 °F 34.9 °F 21.2 °F 52% 29.73 in 10.0 mi East 3.5 mph - N/A   Clear
6:55 AM 37.4 °F 32.1 °F 23.0 °F 56% 29.74 in 10.0 mi East 6.9 mph - N/A   Clear
7:15 AM 39.2 °F - 23.0 °F 52% 29.74 in 10.0 mi Calm Calm - N/A   Clear
7:35 AM 39.2 °F 35.9 °F 21.2 °F 49% 29.74 in 10.0 mi South 4.6 mph - N/A   Clear
7:55 AM 39.2 °F 30.5 °F 23.0 °F 52% 29.74 in 10.0 mi South 16.1 mph - N/A   Partly Cloudy
8:15 AM 37.4 °F 29.3 °F 21.2 °F 52% 29.74 in 10.0 mi SSE 12.7 mph - N/A   Clear
8:35 AM 39.2 °F 35.9 °F 23.0 °F 52% 29.74 in 10.0 mi NNE 4.6 mph - N/A   Clear
8:55 AM 41.0 °F 35.2 °F 23.0 °F 49% 29.74 in 10.0 mi South 9.2 mph - N/A   Clear
9:15 AM 44.6 °F 39.2 °F 24.8 °F 46% 29.74 in 10.0 mi South 10.4 mph - N/A   Clear
9:35 AM 46.4 °F 37.4 °F 23.0 °F 40% 29.73 in 10.0 mi SSW 28.8 mph - N/A   Clear
10:15 AM 46.4 °F 37.5 °F 23.0 °F 40% 29.73 in 10.0 mi SSW 27.6 mph 35.7 mph N/A   Clear
10:35 AM 48.2 °F - 23.0 °F 37% 29.74 in 10.0 mi SSW 25.3 mph 35.7 mph N/A   Clear
10:55 AM 50.0 °F - 23.0 °F 35% 29.74 in 10.0 mi SW 25.3 mph 33.4 mph N/A   Clear
11:15 AM 51.8 °F - 23.0 °F 33% 29.73 in 10.0 mi SW 23.0 mph 29.9 mph N/A   Clear
11:35 AM 50.0 °F - 23.0 °F 35% 29.73 in 10.0 mi SW 20.7 mph - N/A   Clear
11:55 AM 51.8 °F - 23.0 °F 33% 29.72 in 10.0 mi SW 23.0 mph 32.2 mph N/A   Clear
12:15 PM 53.6 °F - 23.0 °F 30% 29.71 in 10.0 mi WSW 27.6 mph 38.0 mph N/A   Clear
12:35 PM 53.6 °F - 23.0 °F 30% 29.71 in 10.0 mi WSW 25.3 mph 38.0 mph N/A   Clear
12:55 PM 53.6 °F - 23.0 °F 30% 29.70 in 10.0 mi WSW 26.5 mph 42.6 mph N/A   Clear
1:15 PM 53.6 °F - 24.8 °F 33% 29.69 in 10.0 mi WSW 26.5 mph 42.6 mph N/A   Clear
1:35 PM 53.6 °F - 24.8 °F 33% 29.69 in 10.0 mi WSW 26.5 mph 35.7 mph N/A   Clear
1:55 PM 55.4 °F - 23.0 °F 29% 29.68 in 10.0 mi SW 24.2 mph 38.0 mph N/A   Clear
2:15 PM 55.4 °F - 23.0 °F 29% 29.68 in 10.0 mi WSW 29.9 mph 35.7 mph N/A   Clear
2:35 PM 53.6 °F - 24.8 °F 33% 29.69 in 10.0 mi WSW 25.3 mph 40.3 mph N/A   Partly Cloudy
2:55 PM 53.6 °F - 24.8 °F 33% 29.69 in 10.0 mi WSW 26.5 mph 31.1 mph N/A   Clear
5:35 PM 42.8 °F 36.6 °F 30.2 °F 61% 29.75 in 10.0 mi SW 11.5 mph - N/A   Partly Cloudy
5:55 PM 42.8 °F 38.6 °F 28.4 °F 57% 29.76 in 10.0 mi WSW 6.9 mph - N/A   Partly Cloudy
6:35 PM 41.0 °F 35.8 °F 26.6 °F 57% 29.76 in 10.0 mi WSW 8.1 mph - N/A   Clear
6:55 PM 41.0 °F - 26.6 °F 57% 29.77 in 10.0 mi Calm Calm - N/A   Clear
7:15 PM 39.2 °F 37.0 °F 26.6 °F 61% 29.78 in 10.0 mi ESE 3.5 mph - N/A   Scattered Clouds
7:35 PM 39.2 °F 35.9 °F 26.6 °F 61% 29.80 in 10.0 mi NW 4.6 mph - N/A   Mostly Cloudy
7:55 PM 41.0 °F 34.7 °F 24.8 °F 53% 29.79 in 10.0 mi North 10.4 mph - N/A   Mostly Cloudy
8:15 PM 41.0 °F 33.9 °F 24.8 °F 53% 29.80 in 10.0 mi NW 12.7 mph - N/A   Scattered Clouds
8:35 PM 39.2 °F 34.2 °F 24.8 °F 56% 29.81 in 10.0 mi WSW 6.9 mph - N/A   Partly Cloudy
8:55 PM 37.4 °F 32.8 °F 24.8 °F 60% 29.80 in 10.0 mi West 5.8 mph - N/A   Clear
9:15 PM 37.4 °F 31.4 °F 21.2 °F 52% 29.81 in 10.0 mi North 8.1 mph - N/A   Clear
9:35 PM 37.4 °F 30.3 °F 21.2 °F 52% 29.81 in 10.0 mi North 10.4 mph - N/A   Clear
9:55 PM 39.2 °F 32.5 °F 17.6 °F 42% 29.82 in 10.0 mi NNW 10.4 mph - N/A   Clear
10:15 PM 39.2 °F 30.8 °F 17.6 °F 42% 29.83 in 10.0 mi NNW 15.0 mph 19.6 mph N/A   Clear
10:35 PM 39.2 °F 33.0 °F 17.6 °F 42% 29.83 in 10.0 mi NNW 9.2 mph - N/A   Partly Cloudy
10:55 PM 39.2 °F 30.8 °F 19.4 °F 45% 29.83 in 10.0 mi North 15.0 mph 19.6 mph N/A   Mostly Cloudy
11:15 PM 37.4 °F 29.8 °F 21.2 °F 52% 29.84 in 10.0 mi North 11.5 mph 17.3 mph N/A   Scattered Clouds
11:35 PM 37.4 °F 32.1 °F 19.4 °F 48% 29.85 in 10.0 mi North 6.9 mph - N/A   Partly Cloudy
11:55 PM 37.4 °F 32.8 °F 19.4 °F 48% 29.85 in 10.0 mi North 5.8 mph - N/A   Clear